createdAt,value
2019-02-17T00:02:30.918Z,46.60
2019-02-17T00:05:02.402Z,45.38
2019-02-17T00:07:34.224Z,45.05
2019-02-17T00:10:06.629Z,36.53
2019-02-17T00:12:37.855Z,45.33
2019-02-17T00:15:09.529Z,35.95
2019-02-17T00:20:11.835Z,38.95
2019-02-17T00:22:43.092Z,38.67
2019-02-17T00:25:14.506Z,52.65
2019-02-17T00:27:45.987Z,55.00
2019-02-17T00:30:17.415Z,63.38
2019-02-17T00:32:49.161Z,48.40
2019-02-17T00:35:20.618Z,64.22
2019-02-17T00:37:52.074Z,36.65
2019-02-17T00:40:23.393Z,43.05
2019-02-17T00:42:54.864Z,44.00
2019-02-17T00:45:26.311Z,44.93
2019-02-17T00:47:57.772Z,43.45
2019-02-17T00:50:29.092Z,44.77
2019-02-17T00:53:00.562Z,51.65
2019-02-17T00:55:32.060Z,82.42
2019-02-17T00:58:03.369Z,68.90
2019-02-17T01:00:34.745Z,66.17
2019-02-17T01:03:06.257Z,58.58
2019-02-17T01:05:37.587Z,59.08
2019-02-17T01:08:08.959Z,46.15
2019-02-17T01:10:40.291Z,49.00
2019-02-17T01:13:11.738Z,68.62
2019-02-17T01:15:43.144Z,54.77
2019-02-17T01:18:14.650Z,70.95
2019-02-17T01:20:45.988Z,62.17
2019-02-17T01:23:17.455Z,69.55
2019-02-17T01:25:48.846Z,64.05
2019-02-17T01:28:20.252Z,61.37
2019-02-17T01:30:51.733Z,63.23
2019-02-17T01:33:23.160Z,66.50
2019-02-17T01:35:54.679Z,70.75
2019-02-17T01:38:26.043Z,67.45
2019-02-17T01:40:57.516Z,80.62
2019-02-17T01:43:28.821Z,68.07
2019-02-17T01:46:00.209Z,74.82
2019-02-17T01:48:31.541Z,69.47
2019-02-17T01:51:02.996Z,86.90
2019-02-17T01:53:34.363Z,74.27
2019-02-17T01:56:05.734Z,94.58
2019-02-17T01:58:37.143Z,108.90
2019-02-17T02:01:08.617Z,85.75
2019-02-17T02:03:40.029Z,121.72
2019-02-17T02:06:11.527Z,96.80
2019-02-17T02:08:42.908Z,99.55
2019-02-17T02:11:14.291Z,126.70
2019-02-17T02:13:45.855Z,131.12
2019-02-17T02:16:17.312Z,123.38
2019-02-17T02:18:48.691Z,145.60
2019-02-17T02:21:20.019Z,109.12
2019-02-17T02:23:51.455Z,91.47
2019-02-17T02:26:23.952Z,90.70
2019-02-17T02:28:56.428Z,95.12
2019-02-17T02:31:27.803Z,101.87
2019-02-17T02:33:59.188Z,70.72
2019-02-17T02:36:30.511Z,95.57
2019-02-17T02:39:01.812Z,70.78
2019-02-17T02:41:35.012Z,61.28
2019-02-17T02:44:06.647Z,91.02
2019-02-17T02:46:37.991Z,89.30
2019-02-17T02:49:09.333Z,67.67
2019-02-17T02:51:40.783Z,85.53
2019-02-17T02:54:12.259Z,82.53
2019-02-17T02:56:43.701Z,79.37
2019-02-17T02:59:15.128Z,66.72
2019-02-17T03:01:46.582Z,83.30
2019-02-17T03:04:17.959Z,73.95
2019-02-17T03:06:51.098Z,84.45
2019-02-17T03:09:22.676Z,158.68
2019-02-17T03:11:53.947Z,122.87
2019-02-17T03:14:25.385Z,104.10
2019-02-17T03:16:56.715Z,104.55
2019-02-17T03:19:28.060Z,102.17
2019-02-17T03:21:59.528Z,51.98
2019-02-17T03:24:30.943Z,82.33
2019-02-17T03:27:02.341Z,70.42
2019-02-17T03:29:33.755Z,78.83
2019-02-17T03:32:05.205Z,83.47
2019-02-17T03:34:36.656Z,77.62
2019-02-17T03:37:08.100Z,88.42
2019-02-17T03:39:39.718Z,72.47
2019-02-17T03:42:11.170Z,76.42
2019-02-17T03:44:42.658Z,79.80
2019-02-17T03:47:14.203Z,94.28
2019-02-17T03:49:45.781Z,92.78
2019-02-17T03:52:17.220Z,99.47
2019-02-17T03:54:48.658Z,93.25
2019-02-17T03:57:19.918Z,91.42
2019-02-17T03:59:51.381Z,111.00
2019-02-17T04:02:22.907Z,92.65
2019-02-17T04:04:54.290Z,108.35
2019-02-17T04:07:26.598Z,78.97
2019-02-17T04:09:58.106Z,99.97
2019-02-17T04:12:30.454Z,113.45
2019-02-17T04:15:01.902Z,109.05
2019-02-17T04:17:33.329Z,107.03
2019-02-17T04:20:05.860Z,67.58
2019-02-17T04:22:38.314Z,97.97
2019-02-17T04:25:09.764Z,129.25
2019-02-17T04:27:41.297Z,106.90
2019-02-17T04:30:12.759Z,93.22
2019-02-17T04:32:44.101Z,98.05
2019-02-17T04:35:15.353Z,114.32
2019-02-17T04:37:46.833Z,96.85
2019-02-17T04:40:18.287Z,100.42
2019-02-17T04:42:49.658Z,81.63
2019-02-17T04:45:21.148Z,78.67
2019-02-17T04:47:52.611Z,91.90
2019-02-17T04:50:24.053Z,97.50
2019-02-17T04:52:55.393Z,81.92
2019-02-17T04:55:27.056Z,81.75
2019-02-17T04:57:58.504Z,99.13
2019-02-17T05:00:39.509Z,112.03
2019-02-17T05:03:03.043Z,69.58
2019-02-17T05:05:34.378Z,91.65
2019-02-17T05:08:05.723Z,85.62
2019-02-17T05:10:37.218Z,93.25
2019-02-17T05:13:08.673Z,131.85
2019-02-17T05:15:40.240Z,111.00
2019-02-17T05:18:11.742Z,107.78
2019-02-17T05:20:43.074Z,89.17
2019-02-17T05:23:14.529Z,81.05
2019-02-17T05:25:45.894Z,99.85
2019-02-17T05:28:17.528Z,81.15
2019-02-17T05:30:52.938Z,80.40
2019-02-17T05:33:22.190Z,85.57
2019-02-17T05:35:53.627Z,58.73
2019-02-17T05:38:26.162Z,65.97
2019-02-17T05:40:57.535Z,48.68
2019-02-17T05:43:29.087Z,49.08
2019-02-17T05:46:00.363Z,62.55
2019-02-17T05:48:31.733Z,53.48
2019-02-17T05:51:03.249Z,52.78
2019-02-17T05:53:34.605Z,54.27
2019-02-17T05:56:06.073Z,43.05
2019-02-17T05:58:37.490Z,34.70
2019-02-17T06:01:08.869Z,50.10
2019-02-17T06:03:40.305Z,49.35
2019-02-17T06:06:11.718Z,41.18
2019-02-17T06:08:43.196Z,32.98
2019-02-17T06:11:14.512Z,40.60
2019-02-17T06:13:45.868Z,32.28
2019-02-17T06:16:17.222Z,34.20
2019-02-17T06:18:48.737Z,40.23
2019-02-17T06:21:20.112Z,27.32
2019-02-17T06:23:51.479Z,38.80
2019-02-17T06:26:22.812Z,35.15
2019-02-17T06:28:54.145Z,38.70
2019-02-17T06:31:28.846Z,36.95
2019-02-17T06:34:00.380Z,33.20
2019-02-17T06:36:31.812Z,32.08
2019-02-17T06:39:04.746Z,27.42
2019-02-17T06:41:36.294Z,28.00
2019-02-17T06:44:07.652Z,29.40
2019-02-17T06:46:40.550Z,30.30
2019-02-17T06:49:12.148Z,30.97
2019-02-17T06:51:43.590Z,37.60
2019-02-17T06:54:15.050Z,32.03
2019-02-17T06:56:48.056Z,34.40
2019-02-17T06:59:19.387Z,33.78
2019-02-17T07:01:50.882Z,32.63
2019-02-17T07:04:23.825Z,34.03
2019-02-17T07:06:56.822Z,31.75
2019-02-17T07:09:28.278Z,33.13
2019-02-17T07:14:30.573Z,31.52
2019-02-17T07:17:02.171Z,30.52
2019-02-17T07:22:04.271Z,28.98
2019-02-17T07:24:35.717Z,30.37
2019-02-17T07:27:07.167Z,30.35
2019-02-17T07:29:38.378Z,20.80
2019-02-17T07:32:11.322Z,30.57
2019-02-17T07:37:14.452Z,31.27
2019-02-17T07:39:45.951Z,26.97
2019-02-17T07:42:17.285Z,25.57
2019-02-17T07:44:48.731Z,26.10
2019-02-17T07:47:21.107Z,23.90
2019-02-17T07:49:52.559Z,15.90
2019-02-17T07:52:23.945Z,23.85
2019-02-17T07:54:55.246Z,25.92
2019-02-17T07:57:26.723Z,23.85
2019-02-17T07:59:58.193Z,28.95
2019-02-17T08:02:29.620Z,27.87
2019-02-17T08:05:01.068Z,24.15
2019-02-17T08:07:32.501Z,23.65
2019-02-17T08:10:08.436Z,25.20
2019-02-17T08:12:39.927Z,26.55
2019-02-17T08:15:11.287Z,27.02
2019-02-17T08:17:42.618Z,24.00
2019-02-17T08:20:13.980Z,19.12
2019-02-17T08:22:45.344Z,22.95
2019-02-17T08:25:21.727Z,26.77
2019-02-17T08:27:49.877Z,26.33
2019-02-17T08:30:21.239Z,25.80
2019-02-17T08:32:52.500Z,19.52
2019-02-17T08:35:24.013Z,27.62
2019-02-17T08:37:55.359Z,24.80
2019-02-17T08:40:26.834Z,25.92
2019-02-17T08:42:58.207Z,25.92
2019-02-17T08:45:29.691Z,26.20
2019-02-17T08:48:01.158Z,21.52
2019-02-17T08:50:32.598Z,22.67
2019-02-17T08:53:04.052Z,21.60
2019-02-17T08:55:35.381Z,19.92
2019-02-17T08:58:06.809Z,19.30
2019-02-17T09:00:38.124Z,22.42
2019-02-17T09:03:09.524Z,21.55
2019-02-17T09:05:44.409Z,21.17
2019-02-17T09:08:15.366Z,19.55
2019-02-17T09:10:46.711Z,20.20
2019-02-17T09:13:18.655Z,20.57
2019-02-17T09:15:50.423Z,19.00
2019-02-17T09:18:21.818Z,18.30
2019-02-17T09:20:53.310Z,20.48
2019-02-17T09:23:24.647Z,19.10
2019-02-17T09:25:55.983Z,20.30
2019-02-17T09:28:27.355Z,18.45
2019-02-17T09:30:58.762Z,18.82
2019-02-17T09:33:30.078Z,21.60
2019-02-17T09:36:01.566Z,20.08
2019-02-17T09:38:32.978Z,19.17
2019-02-17T09:41:04.457Z,20.20
2019-02-17T09:43:35.841Z,20.77
2019-02-17T09:46:07.170Z,19.10
2019-02-17T09:48:38.519Z,21.02
2019-02-17T09:51:11.067Z,20.35
2019-02-17T09:53:42.414Z,19.45
2019-02-17T09:56:14.817Z,20.15
2019-02-17T09:58:46.154Z,13.60
2019-02-17T10:01:17.527Z,19.77
2019-02-17T10:03:48.944Z,18.82
2019-02-17T10:06:20.421Z,19.25
2019-02-17T10:08:51.778Z,19.65
2019-02-17T10:11:23.194Z,19.10
2019-02-17T10:13:54.759Z,16.75
2019-02-17T10:16:26.237Z,17.67
2019-02-17T10:18:57.554Z,17.67
2019-02-17T10:21:29.095Z,15.78
2019-02-17T10:24:00.566Z,17.60
2019-02-17T10:26:31.909Z,13.10
2019-02-17T10:29:03.248Z,10.68
2019-02-17T10:31:34.543Z,15.98
2019-02-17T10:34:05.867Z,16.27
2019-02-17T10:36:37.213Z,14.75
2019-02-17T10:39:08.713Z,15.38
2019-02-17T10:41:40.196Z,14.07
2019-02-17T10:44:11.605Z,14.73
2019-02-17T10:46:43.123Z,16.00
2019-02-17T10:49:14.450Z,15.20
2019-02-17T10:51:45.879Z,13.60
2019-02-17T10:54:17.215Z,14.00
2019-02-17T10:56:48.551Z,13.30
2019-02-17T10:59:20.045Z,11.83
2019-02-17T11:01:51.605Z,14.58
2019-02-17T11:04:22.899Z,16.30
2019-02-17T11:06:54.256Z,13.13
2019-02-17T11:09:25.605Z,11.83
2019-02-17T11:11:56.996Z,13.08
2019-02-17T11:14:28.437Z,12.70
2019-02-17T11:17:00.108Z,11.48
2019-02-17T11:19:31.544Z,11.08
2019-02-17T11:22:02.978Z,8.48
2019-02-17T11:24:34.323Z,11.85
2019-02-17T11:27:05.777Z,11.70
2019-02-17T11:29:37.262Z,10.65
2019-02-17T11:32:08.678Z,9.80
2019-02-17T11:34:40.100Z,10.13
2019-02-17T11:37:11.459Z,11.80
2019-02-17T11:39:42.797Z,11.88
2019-02-17T11:42:14.101Z,11.33
2019-02-17T11:44:45.523Z,10.40
2019-02-17T11:47:16.902Z,9.13
2019-02-17T11:49:48.125Z,9.75
2019-02-17T11:52:19.543Z,9.95
2019-02-17T11:54:51.021Z,10.00
2019-02-17T11:57:22.483Z,9.23
2019-02-17T11:59:53.911Z,8.18
2019-02-17T12:02:25.530Z,9.25
2019-02-17T12:04:57.447Z,10.50
2019-02-17T12:07:28.865Z,8.73
2019-02-17T12:10:01.463Z,10.90
2019-02-17T12:12:33.915Z,8.28
2019-02-17T12:15:08.624Z,7.92
2019-02-17T12:17:40.149Z,8.45
2019-02-17T12:20:41.391Z,7.67
2019-02-17T12:23:20.400Z,6.90
2019-02-17T12:25:56.344Z,6.45
2019-02-17T12:28:29.227Z,6.42
2019-02-17T12:31:00.682Z,6.62
2019-02-17T12:33:32.003Z,6.97
2019-02-17T12:36:03.326Z,8.75
2019-02-17T12:38:34.718Z,9.35
2019-02-17T12:41:06.170Z,7.20
2019-02-17T12:43:37.613Z,7.03
2019-02-17T12:46:09.076Z,8.85
2019-02-17T12:48:40.537Z,6.72
2019-02-17T12:51:11.913Z,6.47
2019-02-17T12:53:43.307Z,5.55
2019-02-17T12:56:14.662Z,5.70
2019-02-17T12:58:45.901Z,5.35
2019-02-17T13:01:17.358Z,5.87
2019-02-17T13:03:48.679Z,5.83
2019-02-17T13:06:20.064Z,5.30
2019-02-17T13:08:51.395Z,5.85
2019-02-17T13:11:22.810Z,3.65
2019-02-17T13:13:54.204Z,5.28
2019-02-17T13:16:25.554Z,6.70
2019-02-17T13:18:57.028Z,6.25
2019-02-17T13:21:28.343Z,7.05
2019-02-17T13:23:59.634Z,9.83
2019-02-17T13:26:30.950Z,11.95
2019-02-17T13:29:02.337Z,10.00
2019-02-17T13:31:33.738Z,10.72
2019-02-17T13:34:05.194Z,10.03
2019-02-17T13:36:36.532Z,12.30
2019-02-17T13:39:08.012Z,11.18
2019-02-17T13:41:39.464Z,10.72
2019-02-17T13:44:10.770Z,13.40
2019-02-17T13:46:42.271Z,50.58
2019-02-17T13:49:13.892Z,24.35
2019-02-17T13:51:45.468Z,17.67
2019-02-17T13:54:16.884Z,15.85
2019-02-17T13:56:48.273Z,13.45
2019-02-17T13:59:19.609Z,26.17
2019-02-17T14:01:51.035Z,15.23
2019-02-17T14:04:22.604Z,17.25
2019-02-17T14:06:53.917Z,24.72
2019-02-17T14:09:25.391Z,21.30
2019-02-17T14:11:56.738Z,23.45
2019-02-17T14:14:28.398Z,20.80
2019-02-17T14:16:59.835Z,20.43
2019-02-17T14:19:31.184Z,23.30
2019-02-17T14:22:02.541Z,21.90
2019-02-17T14:24:34.020Z,22.42
2019-02-17T14:27:05.449Z,26.07
2019-02-17T14:29:36.876Z,17.12
2019-02-17T14:32:08.332Z,23.87
2019-02-17T14:34:39.648Z,23.00
2019-02-17T14:37:13.263Z,19.65
2019-02-17T14:39:44.016Z,19.77
2019-02-17T14:42:15.353Z,23.42
2019-02-17T14:44:47.037Z,20.92
2019-02-17T14:47:18.563Z,22.82
2019-02-17T14:49:50.059Z,19.87
2019-02-17T14:52:21.392Z,25.10
2019-02-17T14:54:52.744Z,23.50
2019-02-17T14:57:24.108Z,21.87
2019-02-17T14:59:55.638Z,16.30
2019-02-17T15:02:26.873Z,19.75
2019-02-17T15:04:58.255Z,26.10
2019-02-17T15:07:29.663Z,28.07
2019-02-17T15:10:01.016Z,25.43
2019-02-17T15:12:33.584Z,25.10
2019-02-17T15:15:07.265Z,21.30
2019-02-17T15:17:38.634Z,26.95
2019-02-17T15:20:13.188Z,26.68
2019-02-17T15:22:44.516Z,27.22
2019-02-17T15:25:15.816Z,32.45
2019-02-17T15:27:47.195Z,33.53
2019-02-17T15:30:18.653Z,32.65
2019-02-17T15:32:49.996Z,29.55
2019-02-17T15:35:22.464Z,34.80
2019-02-17T15:37:54.135Z,31.10
2019-02-17T15:40:26.572Z,30.65
2019-02-17T15:42:58.020Z,30.92
2019-02-17T15:45:29.446Z,31.15
2019-02-17T15:48:00.753Z,31.80
2019-02-17T15:50:32.117Z,29.92
2019-02-17T15:53:03.552Z,32.50
2019-02-17T15:55:35.001Z,29.45
2019-02-17T15:58:06.442Z,34.23
2019-02-17T16:00:37.801Z,35.30
2019-02-17T16:03:09.170Z,35.43
2019-02-17T16:05:40.632Z,33.73
2019-02-17T16:08:12.071Z,35.92
2019-02-17T16:10:43.424Z,36.10
2019-02-17T16:13:14.763Z,37.15
2019-02-17T16:15:46.305Z,40.52
2019-02-17T16:18:17.747Z,40.60
2019-02-17T16:20:50.224Z,38.15
2019-02-17T16:23:21.660Z,37.13
2019-02-17T16:25:53.132Z,34.73
2019-02-17T16:28:24.576Z,32.60
2019-02-17T16:30:56.020Z,29.95
2019-02-17T16:33:27.394Z,30.75
2019-02-17T16:35:58.848Z,30.35
2019-02-17T16:38:30.211Z,28.50
2019-02-17T16:41:01.540Z,30.05
2019-02-17T16:43:32.966Z,29.70
2019-02-17T16:46:04.406Z,28.10
2019-02-17T16:48:35.875Z,26.97
2019-02-17T16:51:07.420Z,29.77
2019-02-17T16:53:38.875Z,27.32
2019-02-17T16:56:10.335Z,27.48
2019-02-17T16:58:41.737Z,29.30
2019-02-17T17:01:13.214Z,27.55
2019-02-17T17:03:44.672Z,21.48
2019-02-17T17:06:16.134Z,28.35
2019-02-17T17:08:47.569Z,28.75
2019-02-17T17:11:18.886Z,27.17
2019-02-17T17:13:50.361Z,27.30
2019-02-17T17:16:21.724Z,26.45
2019-02-17T17:18:53.072Z,28.40
2019-02-17T17:21:24.546Z,27.65
2019-02-17T17:23:55.901Z,28.50
2019-02-17T17:26:27.320Z,26.65
2019-02-17T17:28:58.745Z,28.27
2019-02-17T17:31:30.202Z,20.92
2019-02-17T17:34:01.547Z,21.02
2019-02-17T17:36:32.893Z,28.77
2019-02-17T17:39:04.474Z,27.48
2019-02-17T17:41:37.822Z,28.77
2019-02-17T17:44:09.191Z,28.73
2019-02-17T17:46:40.653Z,29.85
2019-02-17T17:49:19.016Z,29.20
2019-02-17T17:51:46.420Z,29.20
2019-02-17T17:54:17.848Z,29.05
2019-02-17T17:56:49.217Z,30.05
2019-02-17T17:59:20.776Z,28.10
2019-02-17T18:01:51.984Z,29.70
2019-02-17T18:04:23.478Z,31.27
2019-02-17T18:06:57.007Z,30.80
2019-02-17T18:09:27.929Z,31.42
2019-02-17T18:11:59.450Z,29.52
2019-02-17T18:14:30.817Z,29.77
2019-02-17T18:17:02.055Z,28.30
2019-02-17T18:19:33.493Z,29.65
2019-02-17T18:22:04.947Z,30.10
2019-02-17T18:24:36.401Z,28.87
2019-02-17T18:27:07.966Z,32.80
2019-02-17T18:29:39.334Z,27.65
2019-02-17T18:32:10.745Z,30.75
2019-02-17T18:34:42.206Z,31.48
2019-02-17T18:37:13.546Z,29.05
2019-02-17T18:39:45.764Z,30.72
2019-02-17T18:42:17.172Z,30.95
2019-02-17T18:44:48.413Z,32.00
2019-02-17T18:47:20.019Z,24.37
2019-02-17T18:49:51.422Z,35.95
2019-02-17T18:52:22.878Z,25.20
2019-02-17T18:54:55.275Z,28.83
2019-02-17T18:57:26.623Z,26.73
2019-02-17T18:59:58.130Z,32.38
2019-02-17T19:02:29.472Z,26.60
2019-02-17T19:05:01.134Z,36.23
2019-02-17T19:07:32.490Z,26.77
2019-02-17T19:10:04.954Z,27.73
2019-02-17T19:12:36.412Z,28.25
2019-02-17T19:15:12.814Z,28.87
2019-02-17T19:17:44.199Z,29.60
2019-02-17T19:20:30.585Z,28.85
2019-02-17T19:23:02.078Z,28.12
2019-02-17T19:25:33.527Z,38.38
2019-02-17T19:28:04.978Z,26.65
2019-02-17T19:30:36.429Z,30.05
2019-02-17T19:33:07.892Z,26.02
2019-02-17T19:35:42.119Z,26.37
2019-02-17T19:38:12.330Z,26.17
2019-02-17T19:40:43.764Z,24.05
2019-02-17T19:43:15.310Z,26.57
2019-02-17T19:45:46.632Z,29.23
2019-02-17T19:48:17.984Z,25.70
2019-02-17T19:50:49.326Z,25.30
2019-02-17T19:53:20.623Z,23.18
2019-02-17T19:55:51.997Z,28.00
2019-02-17T19:58:23.401Z,24.77
2019-02-17T20:00:54.798Z,23.60
2019-02-17T20:03:36.664Z,27.67
2019-02-17T20:06:09.203Z,24.92
2019-02-17T20:08:40.558Z,25.60
2019-02-17T20:11:11.997Z,25.02
2019-02-17T20:13:43.454Z,24.05
2019-02-17T20:16:15.883Z,22.52
2019-02-17T20:18:47.382Z,23.98
2019-02-17T20:21:18.714Z,24.32
2019-02-17T20:23:50.062Z,26.07
2019-02-17T20:26:21.384Z,23.73
2019-02-17T20:28:57.226Z,23.62
2019-02-17T20:31:25.875Z,23.18
2019-02-17T20:33:57.329Z,24.70
2019-02-17T20:36:30.022Z,25.43
2019-02-17T20:39:01.479Z,29.02
2019-02-17T20:41:34.001Z,27.25
2019-02-17T20:44:05.368Z,24.77
2019-02-17T20:46:36.828Z,26.50
2019-02-17T20:49:08.287Z,25.30
2019-02-17T20:51:39.726Z,24.30
2019-02-17T20:54:11.194Z,26.00
2019-02-17T20:56:42.564Z,26.50
2019-02-17T20:59:13.883Z,28.25
2019-02-17T21:01:45.312Z,28.38
2019-02-17T21:04:16.823Z,26.42
2019-02-17T21:06:48.228Z,26.82
2019-02-17T21:09:19.590Z,26.95
2019-02-17T21:11:50.964Z,30.43
2019-02-17T21:14:22.359Z,29.02
2019-02-17T21:16:53.813Z,30.55
2019-02-17T21:19:25.174Z,26.20
2019-02-17T21:21:56.634Z,26.48
2019-02-17T21:24:28.067Z,21.93
2019-02-17T21:26:59.398Z,20.27
2019-02-17T21:29:30.864Z,27.70
2019-02-17T21:32:03.375Z,27.40
2019-02-17T21:34:34.800Z,28.75
2019-02-17T21:37:06.132Z,26.35
2019-02-17T21:39:37.599Z,25.40
2019-02-17T21:42:09.074Z,25.70
2019-02-17T21:44:40.515Z,22.00
2019-02-17T21:47:11.935Z,26.50
2019-02-17T21:49:43.286Z,25.75
2019-02-17T21:52:14.636Z,20.50
2019-02-17T21:54:46.065Z,19.05
2019-02-17T21:57:18.582Z,25.10
2019-02-17T21:59:50.008Z,19.90
2019-02-17T22:02:21.465Z,24.05
2019-02-17T22:04:53.001Z,26.25
2019-02-17T22:07:24.165Z,25.05
2019-02-17T22:09:55.597Z,27.90
2019-02-17T22:12:27.055Z,25.60
2019-02-17T22:14:59.477Z,27.22
2019-02-17T22:17:30.870Z,26.73
2019-02-17T22:20:02.426Z,25.25
2019-02-17T22:22:33.851Z,26.85
2019-02-17T22:25:06.624Z,21.55
2019-02-17T22:27:37.930Z,27.85
2019-02-17T22:30:12.530Z,27.07
2019-02-17T22:32:43.878Z,28.92
2019-02-17T22:35:15.322Z,25.77
2019-02-17T22:37:46.679Z,29.00
2019-02-17T22:40:18.129Z,27.55
2019-02-17T22:42:49.435Z,19.92
2019-02-17T22:45:20.812Z,26.65
2019-02-17T22:47:52.272Z,27.20
2019-02-17T22:50:23.510Z,28.57
2019-02-17T22:52:54.962Z,27.50
2019-02-17T22:55:26.313Z,27.07
2019-02-17T22:57:57.799Z,27.17
2019-02-17T23:00:52.985Z,27.95
2019-02-17T23:03:25.840Z,26.85
2019-02-17T23:05:57.198Z,21.70
2019-02-17T23:08:28.552Z,25.32
2019-02-17T23:10:59.876Z,25.48
2019-02-17T23:13:31.353Z,28.70
2019-02-17T23:16:02.721Z,22.58
2019-02-17T23:18:34.058Z,29.00
2019-02-17T23:21:05.509Z,25.57
2019-02-17T23:23:36.922Z,27.45
2019-02-17T23:26:08.508Z,29.12
2019-02-17T23:28:39.948Z,28.15
2019-02-17T23:31:11.313Z,29.82
2019-02-17T23:33:42.667Z,28.50
2019-02-17T23:36:14.099Z,28.85
2019-02-17T23:38:45.402Z,27.05
2019-02-17T23:41:16.899Z,28.35
2019-02-17T23:43:48.250Z,23.07
2019-02-17T23:46:19.732Z,27.55
2019-02-17T23:48:51.034Z,28.27
2019-02-17T23:51:22.523Z,26.25
2019-02-17T23:53:53.933Z,29.05
2019-02-17T23:56:25.400Z,27.48
2019-02-17T23:58:56.844Z,28.52
